Time;durP1;ratioP1;P1;durP2;ratioP2;P2;SDS_P1;SDS_P2;PMS_P1;PMS_P2;Temp;Humidity;BMP_temperature;BMP_pressure;BME280_temperature;BME280_humidity;BME280_pressure;Samples;Min_cycle;Max_cycle;Signal;HPM_P1;HPM_P2
2022/01/04 00:00:35;;;;;;;86.00;57.70;;;;;;;7.71;80.64;99011.40;130478;1268;108733;-77
2022/01/04 00:03:46;;;;;;;45.80;28.60;;;;;;;7.75;80.42;99007.79;130479;1268;108686;-77
2022/01/04 00:06:53;;;;;;;109.40;92.90;;;;;;;7.77;80.52;99007.63;130419;1268;107884;-75
2022/01/04 00:09:59;;;;;;;90.70;63.10;;;;;;;7.75;80.37;99014.30;130438;1268;107291;-76
2022/01/04 00:13:24;;;;;;;64.30;42.20;;;;;;;7.73;80.44;99014.70;130348;1268;108949;-75
2022/01/04 00:16:29;;;;;;;105.90;79.90;;;;;;;7.70;80.25;99016.33;130429;1268;108682;-77
2022/01/04 00:19:35;;;;;;;53.00;38.90;;;;;;;7.65;80.35;99007.98;130302;1268;108949;-77
2022/01/04 00:22:40;;;;;;;13.50;9.00;;;;;;;7.62;80.47;99002.84;130322;1268;108875;-77
2022/01/04 00:25:46;;;;;;;13.10;7.20;;;;;;;7.60;80.16;99003.23;130403;1268;108791;-77
2022/01/04 00:28:52;;;;;;;13.80;6.40;;;;;;;7.59;80.17;99003.01;130158;1268;108776;-75
2022/01/04 00:31:57;;;;;;;17.40;12.10;;;;;;;7.56;80.10;99002.24;130306;1267;109049;-78
2022/01/04 00:35:03;;;;;;;15.30;8.00;;;;;;;7.47;80.00;98999.28;130313;1268;108611;-77
2022/01/04 00:38:09;;;;;;;10.00;5.20;;;;;;;7.39;80.21;99001.39;130347;1268;108943;-77
2022/01/04 00:41:14;;;;;;;10.30;4.70;;;;;;;7.30;79.93;99001.84;130301;1267;108810;-76
2022/01/04 00:44:20;;;;;;;11.10;4.30;;;;;;;7.18;79.94;99000.59;130356;1268;107719;-76
2022/01/04 00:47:39;;;;;;;7.40;3.40;;;;;;;7.07;79.82;99001.52;130333;1268;108673;-76
2022/01/04 00:50:45;;;;;;;8.90;3.30;;;;;;;6.97;79.79;98996.64;130342;1268;107738;-77
2022/01/04 00:53:50;;;;;;;10.20;6.10;;;;;;;6.88;79.94;99001.63;130238;1268;108622;-76
2022/01/04 00:56:56;;;;;;;9.50;4.20;;;;;;;6.83;79.98;98999.67;130410;1268;108750;-74
2022/01/04 01:00:01;;;;;;;11.00;4.00;;;;;;;6.79;79.97;98996.71;130383;1268;108784;-77
2022/01/04 01:03:08;;;;;;;7.80;3.90;;;;;;;6.72;79.86;98994.23;130388;1268;108874;-75
2022/01/04 01:06:14;;;;;;;15.50;9.40;;;;;;;6.65;79.65;98989.33;130339;1267;109723;-76
2022/01/04 01:09:22;;;;;;;11.70;6.10;;;;;;;6.56;80.05;98985.98;130307;1267;108760;-77
2022/01/04 01:12:28;;;;;;;54.20;28.10;;;;;;;6.48;80.01;98980.41;130323;1268;108703;-77
2022/01/04 01:15:34;;;;;;;29.60;15.50;;;;;;;6.40;79.88;98971.63;130342;1268;108877;-77
2022/01/04 01:18:40;;;;;;;18.30;9.00;;;;;;;6.29;79.80;98966.30;130344;1268;108694;-75
2022/01/04 01:21:45;;;;;;;31.30;16.20;;;;;;;6.21;79.76;98968.02;130404;1267;108727;-76
2022/01/04 01:24:51;;;;;;;28.00;15.00;;;;;;;6.16;80.12;98966.65;130389;1268;108786;-76
2022/01/04 01:27:56;;;;;;;42.80;24.60;;;;;;;6.11;79.84;98960.90;130417;1267;108872;-76
2022/01/04 01:31:03;;;;;;;30.10;15.70;;;;;;;6.06;79.92;98953.89;130330;1268;108830;-77
2022/01/04 01:34:08;;;;;;;20.70;10.70;;;;;;;6.02;79.94;98948.05;130345;1267;108921;-78
2022/01/04 01:37:13;;;;;;;25.60;14.60;;;;;;;5.97;79.76;98941.04;130367;1268;108724;-79
2022/01/04 01:40:19;;;;;;;23.40;12.80;;;;;;;5.90;79.90;98934.06;130450;1268;107645;-80
2022/01/04 01:43:28;;;;;;;30.90;17.90;;;;;;;5.83;79.90;98935.44;130374;1267;107629;-78
2022/01/04 01:46:34;;;;;;;16.50;8.20;;;;;;;5.76;79.97;98935.34;130409;1267;108838;-78
2022/01/04 01:49:40;;;;;;;22.60;12.10;;;;;;;5.69;79.96;98936.52;130373;1268;108790;-77
2022/01/04 01:52:48;;;;;;;22.40;11.60;;;;;;;5.67;80.01;98939.42;130399;1268;107126;-77
2022/01/04 01:55:54;;;;;;;29.20;16.70;;;;;;;5.66;80.21;98937.86;130426;1268;108409;-77
2022/01/04 01:58:59;;;;;;;28.70;16.00;;;;;;;5.67;79.95;98937.63;130405;1268;108890;-77
2022/01/04 02:02:06;;;;;;;24.70;13.90;;;;;;;5.68;80.05;98936.00;130407;1267;107052;-77
2022/01/04 02:05:12;;;;;;;32.90;19.80;;;;;;;5.65;79.86;98938.52;130363;1268;107783;-78
2022/01/04 02:08:19;;;;;;;26.50;16.10;;;;;;;5.60;79.84;98936.55;130370;1268;108696;-78
2022/01/04 02:11:25;;;;;;;18.60;10.10;;;;;;;5.55;79.94;98929.64;130369;1268;107286;-78
2022/01/04 02:14:30;;;;;;;15.30;6.90;;;;;;;5.49;80.01;98928.34;130300;1268;108725;-78
2022/01/04 02:17:36;;;;;;;35.00;20.00;;;;;;;5.43;79.98;98923.98;130398;1268;108720;-77
2022/01/04 02:20:41;;;;;;;21.60;12.00;;;;;;;5.42;80.09;98925.48;130363;1268;108731;-78
2022/01/04 02:23:47;;;;;;;13.80;7.40;;;;;;;5.46;80.17;98923.98;130406;1268;108729;-76
2022/01/04 02:26:53;;;;;;;41.90;22.70;;;;;;;5.55;80.37;98923.13;130413;1268;108761;-77
2022/01/04 02:29:58;;;;;;;18.40;8.80;;;;;;;5.64;80.30;98919.61;130415;1267;108610;-78
2022/01/04 02:33:04;;;;;;;35.50;17.80;;;;;;;5.70;80.46;98915.83;130408;1268;108827;-78
2022/01/04 02:36:09;;;;;;;31.80;16.40;;;;;;;5.71;80.47;98909.34;130360;1268;108837;-77
2022/01/04 02:39:15;;;;;;;15.30;7.60;;;;;;;5.69;80.16;98909.51;130316;1268;108904;-77
2022/01/04 02:42:20;;;;;;;180.50;61.30;;;;;;;5.68;80.31;98909.96;130331;1268;108746;-77
2022/01/04 02:45:26;;;;;;;21.10;10.20;;;;;;;5.72;80.36;98911.31;130357;1268;108654;-77
2022/01/04 02:48:31;;;;;;;16.20;7.30;;;;;;;5.80;80.59;98914.20;130343;1268;108853;-77
2022/01/04 02:51:38;;;;;;;12.70;6.50;;;;;;;5.89;80.54;98904.88;130352;1268;108658;-76
2022/01/04 02:54:43;;;;;;;12.50;6.00;;;;;;;5.94;80.36;98898.94;130355;1268;108135;-79
2022/01/04 02:57:48;;;;;;;11.20;5.70;;;;;;;5.98;80.63;98896.95;130301;1268;108955;-79
2022/01/04 03:00:54;;;;;;;11.70;5.40;;;;;;;6.03;80.56;98894.16;130319;1268;108814;-78
2022/01/04 03:03:59;;;;;;;9.40;4.30;;;;;;;6.07;80.52;98884.02;130358;1268;108808;-72
2022/01/04 03:07:05;;;;;;;10.00;4.90;;;;;;;6.13;80.38;98878.50;130319;1268;107030;-73
2022/01/04 03:10:11;;;;;;;11.00;5.10;;;;;;;6.17;80.34;98871.84;130312;1268;109400;-74
2022/01/04 03:13:16;;;;;;;14.50;7.20;;;;;;;6.20;80.42;98870.96;130339;1268;108778;-73
2022/01/04 03:16:22;;;;;;;23.10;14.10;;;;;;;6.22;80.38;98871.90;130316;1268;108902;-73
2022/01/04 03:19:28;;;;;;;16.50;10.10;;;;;;;6.23;80.27;98875.84;130336;1268;108824;-70
2022/01/04 03:22:33;;;;;;;11.20;6.10;;;;;;;6.21;80.31;98874.24;130091;1268;108720;-73
2022/01/04 03:25:40;;;;;;;16.60;9.80;;;;;;;6.19;80.50;98872.89;130236;1268;108744;-77
2022/01/04 03:28:46;;;;;;;10.10;5.40;;;;;;;6.19;80.51;98860.86;130304;1268;108935;-76
2022/01/04 03:31:52;;;;;;;10.50;5.50;;;;;;;6.17;80.35;98857.75;130365;1268;108860;-76
2022/01/04 03:34:57;;;;;;;10.30;5.80;;;;;;;6.17;80.40;98856.85;130293;1268;108838;-76
2022/01/04 03:38:03;;;;;;;8.40;5.20;;;;;;;6.17;80.52;98843.04;130326;1268;108784;-75
2022/01/04 03:41:09;;;;;;;9.40;5.20;;;;;;;6.16;80.54;98843.02;130331;1268;108974;-75
2022/01/04 03:44:19;;;;;;;9.50;5.10;;;;;;;6.14;80.48;98839.70;130359;1268;108629;-73
2022/01/04 03:47:25;;;;;;;9.40;5.10;;;;;;;6.14;80.66;98838.77;130398;1268;107282;-75
2022/01/04 03:50:30;;;;;;;8.40;5.00;;;;;;;6.14;80.54;98840.20;130361;1268;108937;-75
2022/01/04 03:53:36;;;;;;;12.10;4.60;;;;;;;6.15;80.69;98838.13;130336;1268;108974;-74
2022/01/04 03:56:42;;;;;;;10.80;4.80;;;;;;;6.16;80.69;98835.37;130369;1267;108876;-73
2022/01/04 03:59:48;;;;;;;10.00;5.40;;;;;;;6.22;80.84;98840.65;130324;1268;108716;-74
2022/01/04 04:02:53;;;;;;;9.50;5.60;;;;;;;6.29;80.55;98831.10;130328;1268;108638;-74
2022/01/04 04:05:59;;;;;;;11.30;5.10;;;;;;;6.31;80.54;98829.77;130300;1268;108743;-72
2022/01/04 04:09:04;;;;;;;14.00;5.40;;;;;;;6.28;80.52;98826.54;130470;1268;107704;-79
2022/01/04 04:12:13;;;;;;;10.30;5.50;;;;;;;6.25;80.55;98827.05;130346;1268;108792;-78
2022/01/04 04:15:19;;;;;;;9.60;4.80;;;;;;;6.25;80.81;98825.85;130248;1268;108690;-78
2022/01/04 04:18:24;;;;;;;10.10;5.20;;;;;;;6.24;80.84;98822.02;130319;1268;109266;-78
2022/01/04 04:21:30;;;;;;;8.60;5.00;;;;;;;6.28;80.89;98820.73;130302;1268;108617;-79
2022/01/04 04:24:35;;;;;;;10.40;5.20;;;;;;;6.34;80.76;98821.38;130346;1268;108733;-79
2022/01/04 04:27:41;;;;;;;9.90;5.30;;;;;;;6.38;80.68;98816.68;130283;1268;108779;-78
2022/01/04 04:30:46;;;;;;;11.80;5.30;;;;;;;6.42;80.70;98817.57;130340;1268;108583;-80
2022/01/04 04:33:51;;;;;;;11.60;5.70;;;;;;;6.43;80.82;98818.46;130301;1268;108844;-79
2022/01/04 04:36:57;;;;;;;10.70;5.80;;;;;;;6.44;80.85;98821.15;130306;1268;107461;-77
2022/01/04 04:40:03;;;;;;;9.60;5.30;;;;;;;6.44;80.73;98824.86;130314;1268;108950;-79
2022/01/04 04:43:08;;;;;;;16.30;7.20;;;;;;;6.43;80.87;98828.40;130306;1268;108799;-78
2022/01/04 04:46:14;;;;;;;12.80;6.50;;;;;;;6.40;80.73;98820.52;130317;1268;108655;-79
2022/01/04 04:49:19;;;;;;;12.90;6.90;;;;;;;6.45;80.94;98821.04;130388;1268;108680;-77
2022/01/04 04:52:24;;;;;;;14.20;7.30;;;;;;;6.51;80.92;98818.92;130359;1268;108805;-78
2022/01/04 04:55:31;;;;;;;11.90;6.60;;;;;;;6.53;80.76;98809.80;130316;1267;108735;-78
2022/01/04 04:58:36;;;;;;;13.80;7.20;;;;;;;6.53;80.71;98798.70;130305;1268;108679;-76
2022/01/04 05:01:42;;;;;;;10.40;6.10;;;;;;;6.53;80.82;98801.02;130299;1268;107349;-77
2022/01/04 05:04:47;;;;;;;10.10;5.20;;;;;;;6.52;80.76;98802.21;130296;1268;108704;-78
2022/01/04 05:07:52;;;;;;;9.70;4.60;;;;;;;6.47;80.72;98792.97;130320;1268;108577;-77
2022/01/04 05:10:58;;;;;;;9.90;5.10;;;;;;;6.44;80.50;98788.19;130330;1268;108878;-79
2022/01/04 05:14:03;;;;;;;12.40;5.80;;;;;;;6.41;80.62;98787.25;130352;1268;108265;-74
2022/01/04 05:17:09;;;;;;;12.30;5.60;;;;;;;6.37;81.00;98780.75;130255;1268;108946;-76
2022/01/04 05:20:15;;;;;;;49.80;23.20;;;;;;;6.34;80.79;98780.59;130036;1271;108718;-76
2022/01/04 05:23:20;;;;;;;18.70;10.00;;;;;;;6.28;80.87;98772.00;129974;1271;108738;-76
2022/01/04 05:26:26;;;;;;;12.20;7.20;;;;;;;6.23;80.82;98769.02;130278;1268;108726;-76
2022/01/04 05:29:31;;;;;;;17.70;8.60;;;;;;;6.16;80.96;98767.96;130226;1268;107662;-76
2022/01/04 05:32:36;;;;;;;22.00;9.80;;;;;;;6.12;81.17;98767.17;130079;1268;107794;-76
2022/01/04 05:35:42;;;;;;;17.70;9.70;;;;;;;6.09;80.92;98764.66;130248;1268;108806;-76
2022/01/04 05:38:48;;;;;;;16.30;9.50;;;;;;;6.13;81.34;98763.84;130220;1268;108822;-76
2022/01/04 05:41:53;;;;;;;48.80;29.90;;;;;;;6.19;81.14;98762.04;130190;1268;108227;-75
2022/01/04 05:45:00;;;;;;;25.40;12.30;;;;;;;6.23;81.21;98756.98;130295;1268;108904;-76
2022/01/04 05:48:06;;;;;;;80.80;40.80;;;;;;;6.25;81.08;98754.98;130294;1268;109197;-76
2022/01/04 05:51:11;;;;;;;30.50;16.10;;;;;;;6.25;81.16;98758.05;130354;1268;107444;-74
2022/01/04 05:54:17;;;;;;;86.20;47.50;;;;;;;6.22;81.13;98755.26;130395;1268;108123;-74
2022/01/04 05:57:22;;;;;;;14.70;8.10;;;;;;;6.19;81.31;98752.27;130276;1268;108778;-74
2022/01/04 06:00:28;;;;;;;20.00;9.70;;;;;;;6.19;81.42;98755.36;130215;1268;107735;-76
2022/01/04 06:03:34;;;;;;;25.60;12.30;;;;;;;6.20;81.40;98752.52;130221;1268;108761;-76
2022/01/04 06:06:40;;;;;;;19.00;10.10;;;;;;;6.22;81.45;98748.27;130062;1268;107439;-79
2022/01/04 06:09:49;;;;;;;17.20;9.40;;;;;;;6.22;81.38;98749.30;130632;1268;108998;-75
2022/01/04 06:16:17;;;;;;;17.10;9.60;;;;;;;6.20;81.32;98744.93;130327;1268;108761;-77
2022/01/04 06:19:22;;;;;;;13.80;7.70;;;;;;;6.17;81.36;98739.23;130350;1268;108730;-77
2022/01/04 06:22:29;;;;;;;14.80;9.00;;;;;;;6.18;81.53;98739.19;130432;1268;107754;-74
2022/01/04 06:25:35;;;;;;;13.00;8.20;;;;;;;6.19;81.43;98746.34;130352;1268;108719;-74
2022/01/04 06:28:41;;;;;;;13.40;8.10;;;;;;;6.22;81.51;98745.79;130353;1268;108790;-73
2022/01/04 06:31:46;;;;;;;11.80;7.00;;;;;;;6.24;81.55;98737.45;130314;1268;108795;-73
2022/01/04 06:34:52;;;;;;;11.70;6.80;;;;;;;6.25;81.61;98736.66;130312;1268;108759;-73
2022/01/04 06:37:57;;;;;;;20.40;10.60;;;;;;;6.24;81.70;98731.42;130293;1268;108766;-74
2022/01/04 06:41:03;;;;;;;14.70;7.80;;;;;;;6.23;81.43;98727.81;130334;1268;108875;-72
2022/01/04 06:44:08;;;;;;;9.60;6.30;;;;;;;6.24;81.64;98726.19;130322;1268;108673;-73
2022/01/04 06:47:13;;;;;;;11.10;6.70;;;;;;;6.26;81.69;98731.02;130176;1268;201844;-75
2022/01/04 06:50:19;;;;;;;11.00;7.20;;;;;;;6.31;81.50;98732.14;130354;1268;108674;-72
2022/01/04 06:53:25;;;;;;;11.40;7.20;;;;;;;6.34;81.60;98736.25;130379;1268;108671;-72
2022/01/04 06:56:31;;;;;;;11.70;8.40;;;;;;;6.34;81.57;98734.66;130338;1268;108753;-74
2022/01/04 06:59:36;;;;;;;15.60;8.90;;;;;;;6.33;81.70;98730.73;130328;1267;108950;-75
2022/01/04 07:02:42;;;;;;;12.70;8.20;;;;;;;6.31;81.69;98724.35;130348;1268;108707;-72
2022/01/04 07:05:47;;;;;;;12.80;7.90;;;;;;;6.30;81.76;98725.88;130314;1268;108660;-75
2022/01/04 07:08:52;;;;;;;13.70;7.80;;;;;;;6.31;81.71;98724.95;130330;1267;108947;-74
2022/01/04 07:11:58;;;;;;;13.40;8.60;;;;;;;6.32;81.86;98726.54;130325;1268;108843;-75
2022/01/04 07:15:04;;;;;;;12.60;8.40;;;;;;;6.35;81.73;98723.60;130304;1268;108558;-75
2022/01/04 07:18:09;;;;;;;12.20;8.10;;;;;;;6.40;81.91;98719.16;130352;1268;108872;-74
2022/01/04 07:21:15;;;;;;;12.30;8.10;;;;;;;6.43;81.48;98713.88;130340;1267;108745;-74
2022/01/04 07:24:20;;;;;;;12.50;7.10;;;;;;;6.42;81.80;98705.33;130248;1268;108758;-73
2022/01/04 07:27:26;;;;;;;10.90;7.50;;;;;;;6.43;81.81;98695.06;130289;1268;107677;-74
2022/01/04 07:30:31;;;;;;;11.20;7.30;;;;;;;6.49;81.95;98696.84;130355;1268;108896;-74
2022/01/04 07:33:37;;;;;;;16.30;10.00;;;;;;;6.58;81.83;98692.52;130271;1268;108880;-74
2022/01/04 07:36:43;;;;;;;12.40;7.60;;;;;;;6.66;81.90;98684.89;130303;1268;108674;-75
2022/01/04 07:39:48;;;;;;;16.00;9.60;;;;;;;6.73;81.89;98683.71;130337;1268;108750;-74
2022/01/04 07:42:59;;;;;;;13.30;8.90;;;;;;;6.78;81.68;98680.88;130362;1268;108646;-74
2022/01/04 07:46:05;;;;;;;10.60;6.90;;;;;;;6.80;81.82;98679.55;130322;1267;109018;-73
2022/01/04 07:49:10;;;;;;;12.80;7.30;;;;;;;6.81;81.86;98677.81;130297;1268;108711;-73
2022/01/04 07:52:16;;;;;;;11.80;7.50;;;;;;;6.87;82.05;98670.61;130313;1268;108678;-75
2022/01/04 07:55:22;;;;;;;11.90;7.60;;;;;;;6.94;82.09;98659.50;130295;1268;108466;-73
2022/01/04 07:58:29;;;;;;;14.60;8.30;;;;;;;6.99;81.73;98655.11;130353;1268;108741;-73
2022/01/04 08:01:34;;;;;;;15.40;10.90;;;;;;;7.04;81.97;98653.20;130367;1268;108709;-74
2022/01/04 08:04:40;;;;;;;11.00;7.40;;;;;;;7.09;81.60;98651.23;130316;1268;108876;-73
2022/01/04 08:07:45;;;;;;;13.70;7.90;;;;;;;7.10;81.68;98642.98;130274;1268;108838;-74
2022/01/04 08:10:52;;;;;;;17.80;9.00;;;;;;;7.13;81.82;98637.17;130332;1268;108563;-73
2022/01/04 08:13:58;;;;;;;14.10;7.90;;;;;;;7.21;81.91;98628.40;130331;1268;108531;-74
2022/01/04 08:17:03;;;;;;;11.50;7.50;;;;;;;7.27;81.57;98611.59;130298;1268;108837;-74
2022/01/04 08:20:11;;;;;;;29.90;16.30;;;;;;;7.32;81.51;98611.33;130331;1268;108683;-74
2022/01/04 08:23:16;;;;;;;15.80;9.50;;;;;;;7.38;81.60;98612.15;130348;1268;108689;-72
2022/01/04 08:26:21;;;;;;;32.80;18.60;;;;;;;7.41;81.51;98611.71;130349;1268;107278;-74
2022/01/04 08:29:27;;;;;;;15.40;8.50;;;;;;;7.43;81.56;98602.34;130319;1267;108817;-73
2022/01/04 08:32:32;;;;;;;44.40;19.70;;;;;;;7.44;81.80;98600.80;130275;1267;108763;-73
2022/01/04 08:35:38;;;;;;;11.50;7.80;;;;;;;7.47;81.58;98597.40;130333;1268;108991;-74
2022/01/04 08:38:43;;;;;;;12.90;8.30;;;;;;;7.54;81.61;98584.50;130303;1268;108678;-73
2022/01/04 08:41:50;;;;;;;12.40;7.30;;;;;;;7.58;81.52;98582.73;130343;1268;108663;-73
2022/01/04 08:44:56;;;;;;;10.20;7.40;;;;;;;7.64;81.75;98579.66;130283;1268;107681;-73
2022/01/04 08:48:04;;;;;;;15.00;10.00;;;;;;;7.66;81.62;98566.23;130127;1268;108712;-73
2022/01/04 08:51:09;;;;;;;10.20;6.80;;;;;;;7.67;81.46;98561.02;130339;1267;108737;-74
2022/01/04 08:54:15;;;;;;;29.90;16.60;;;;;;;7.71;81.61;98564.52;130322;1268;108924;-74
2022/01/04 08:57:21;;;;;;;26.90;13.70;;;;;;;7.78;81.56;98567.05;130312;1267;108581;-75
2022/01/04 09:00:26;;;;;;;15.70;9.80;;;;;;;7.84;81.68;98558.05;130277;1267;109007;-73
2022/01/04 09:03:33;;;;;;;11.70;7.70;;;;;;;7.86;81.83;98555.52;130292;1268;108811;-74
2022/01/04 09:06:39;;;;;;;11.90;7.70;;;;;;;7.89;81.82;98548.22;130299;1268;108574;-74
2022/01/04 09:09:44;;;;;;;10.30;7.40;;;;;;;7.91;81.81;98547.88;130367;1267;108785;-74
2022/01/04 09:12:57;;;;;;;10.50;6.60;;;;;;;7.93;81.93;98545.04;130324;1267;108892;-74
2022/01/04 09:19:27;;;;;;;10.50;6.70;;;;;;;8.01;81.97;98541.35;130261;1268;109097;-73
2022/01/04 09:22:33;;;;;;;12.30;7.90;;;;;;;8.12;81.97;98537.84;130329;1268;108852;-75
2022/01/04 09:25:38;;;;;;;10.60;8.00;;;;;;;8.17;81.89;98538.59;130290;1268;107369;-75
2022/01/04 09:28:45;;;;;;;11.20;8.60;;;;;;;8.21;81.62;98525.60;130292;1268;108865;-74
2022/01/04 09:31:54;;;;;;;13.00;9.10;;;;;;;8.22;81.72;98514.97;130370;1268;109088;-75
2022/01/04 09:35:00;;;;;;;12.10;8.40;;;;;;;8.28;81.67;98506.00;130161;1268;108785;-74
2022/01/04 09:38:06;;;;;;;12.90;8.20;;;;;;;8.31;81.70;98495.34;130259;1268;108864;-74
2022/01/04 09:41:11;;;;;;;12.80;8.40;;;;;;;8.35;81.94;98492.59;130341;1268;108960;-74
2022/01/04 09:44:17;;;;;;;12.00;8.50;;;;;;;8.43;81.88;98486.55;130209;1268;108724;-73
2022/01/04 09:47:23;;;;;;;12.50;8.80;;;;;;;8.51;81.64;98486.42;130324;1268;108674;-74
2022/01/04 09:50:29;;;;;;;12.20;8.60;;;;;;;8.56;81.70;98489.42;130304;1268;108973;-74
2022/01/04 09:53:36;;;;;;;11.50;8.50;;;;;;;8.55;81.65;98484.05;130326;1268;107774;-74
2022/01/04 09:56:41;;;;;;;13.50;9.00;;;;;;;8.51;81.55;98481.31;130372;1268;108856;-73
2022/01/04 09:59:47;;;;;;;11.20;7.90;;;;;;;8.49;81.58;98478.98;130321;1268;108676;-73
2022/01/04 10:02:53;;;;;;;12.60;7.40;;;;;;;8.43;81.54;98465.58;130263;1267;108870;-74
2022/01/04 10:06:08;;;;;;;11.60;8.40;;;;;;;8.42;81.47;98462.52;130308;1267;108621;-74
2022/01/04 10:09:14;;;;;;;12.40;8.80;;;;;;;8.46;81.55;98455.02;130304;1268;108646;-73
2022/01/04 10:12:22;;;;;;;12.10;8.40;;;;;;;8.44;81.25;98447.03;130288;1267;108939;-74
2022/01/04 10:15:48;;;;;;;14.00;9.40;;;;;;;8.44;81.28;98446.21;130302;1268;108766;-74
2022/01/04 10:18:54;;;;;;;13.40;9.00;;;;;;;8.45;81.13;98442.21;130182;1270;108763;-75
2022/01/04 10:22:17;;;;;;;12.70;8.80;;;;;;;8.41;81.22;98443.11;130219;1268;108884;-73
2022/01/04 10:25:23;;;;;;;11.90;8.00;;;;;;;8.38;81.40;98438.68;130262;1268;108723;-74
2022/01/04 10:28:33;;;;;;;11.70;7.60;;;;;;;8.36;81.28;98438.63;130246;1268;108873;-73
2022/01/04 10:31:40;;;;;;;13.70;8.40;;;;;;;8.37;81.33;98433.48;130328;1268;108758;-74
2022/01/04 10:34:49;;;;;;;12.10;8.20;;;;;;;8.43;81.46;98433.02;130291;1268;108588;-74
2022/01/04 10:37:56;;;;;;;12.30;8.90;;;;;;;8.46;81.35;98426.98;130294;1268;108750;-75
2022/01/04 10:41:06;;;;;;;13.20;9.00;;;;;;;8.47;81.34;98422.45;130293;1268;109002;-74
2022/01/04 10:44:12;;;;;;;11.90;8.40;;;;;;;8.49;81.38;98413.55;130308;1268;107638;-74
2022/01/04 10:47:28;;;;;;;13.70;8.70;;;;;;;8.48;81.41;98408.32;130274;1268;108044;-74
2022/01/04 10:50:36;;;;;;;13.50;7.90;;;;;;;8.48;81.31;98406.79;130228;1268;108819;-73
2022/01/04 10:53:43;;;;;;;12.90;8.10;;;;;;;8.46;81.35;98400.92;130307;1268;107401;-75
2022/01/04 10:56:50;;;;;;;17.40;11.20;;;;;;;8.45;81.41;98395.52;130327;1268;108864;-75
2022/01/04 11:00:15;;;;;;;17.70;10.90;;;;;;;8.47;81.40;98388.46;130176;1268;108910;-75
2022/01/04 11:03:26;;;;;;;22.00;15.00;;;;;;;8.51;81.38;98382.27;130150;1268;108689;-73
2022/01/04 11:06:34;;;;;;;17.90;11.10;;;;;;;8.53;81.40;98374.15;130286;1267;108741;-74
2022/01/04 11:09:40;;;;;;;17.00;11.10;;;;;;;8.58;81.44;98369.21;130199;1268;108965;-72
2022/01/04 11:12:45;;;;;;;17.50;10.00;;;;;;;8.58;81.33;98364.55;130247;1268;108925;-74
2022/01/04 11:15:51;;;;;;;15.80;9.10;;;;;;;8.59;81.43;98361.29;130365;1268;107712;-74
2022/01/04 11:18:58;;;;;;;18.30;10.70;;;;;;;8.61;81.44;98350.61;130229;1268;108490;-74
2022/01/04 11:22:08;;;;;;;16.00;9.80;;;;;;;8.68;81.46;98340.93;130219;1268;108856;-74
2022/01/04 11:25:15;;;;;;;19.40;10.50;;;;;;;8.74;81.41;98330.00;130266;1268;109206;-75
2022/01/04 11:28:22;;;;;;;15.70;10.00;;;;;;;8.79;81.54;98320.36;130196;1270;109240;-75
2022/01/04 11:31:44;;;;;;;16.30;10.20;;;;;;;8.81;81.42;98315.30;129968;1270;108710;-74
2022/01/04 11:35:02;;;;;;;;;;;;;;;8.81;81.54;98315.12;130281;1268;108790;-74
2022/01/04 11:38:08;;;;;;;15.30;9.80;;;;;;;8.78;81.27;98310.40;130238;1268;108772;-73
2022/01/04 11:41:24;;;;;;;14.10;8.60;;;;;;;8.75;81.52;98300.80;130182;1269;108880;-75
2022/01/04 11:44:31;;;;;;;16.60;9.00;;;;;;;8.73;81.46;98291.90;130281;1268;108819;-75
2022/01/04 11:47:37;;;;;;;23.60;12.20;;;;;;;8.74;81.52;98283.90;130200;1268;108979;-74
2022/01/04 11:50:42;;;;;;;15.80;9.50;;;;;;;8.78;81.51;98275.96;130221;1267;108847;-73
2022/01/04 11:54:22;;;;;;;20.90;10.30;;;;;;;8.82;81.54;98265.33;130206;1266;108722;-74
2022/01/04 11:57:31;;;;;;;15.40;9.40;;;;;;;8.88;81.62;98259.64;130199;1267;108762;-75
2022/01/04 12:00:40;;;;;;;16.70;9.90;;;;;;;8.91;81.51;98253.61;130252;1267;108769;-74
2022/01/04 12:03:48;;;;;;;15.00;9.00;;;;;;;8.93;81.62;98243.31;130225;1267;108885;-74
2022/01/04 12:06:55;;;;;;;16.00;9.50;;;;;;;8.92;81.61;98232.48;130313;1267;108750;-74
2022/01/04 12:10:37;;;;;;;16.60;9.90;;;;;;;8.90;81.62;98221.48;130235;1268;108837;-74
2022/01/04 12:13:50;;;;;;;17.60;10.50;;;;;;;8.91;81.60;98215.36;130288;1268;108186;-74
2022/01/04 12:17:07;;;;;;;17.50;11.20;;;;;;;8.92;81.54;98208.45;130232;1268;109849;-74
2022/01/04 12:20:12;;;;;;;17.30;10.70;;;;;;;8.93;81.61;98200.40;130213;1270;108447;-75
2022/01/04 12:23:47;;;;;;;17.60;11.00;;;;;;;8.92;81.54;98191.66;130212;1268;108831;-75
2022/01/04 12:27:09;;;;;;;16.20;10.30;;;;;;;8.87;81.65;98179.86;130239;1268;107191;-74
2022/01/04 12:30:30;;;;;;;15.20;9.40;;;;;;;8.83;81.65;98172.04;130268;1268;108898;-75
2022/01/04 12:33:40;;;;;;;17.00;10.30;;;;;;;8.81;81.69;98162.30;130268;1268;108484;-75
2022/01/04 12:36:49;;;;;;;17.10;10.70;;;;;;;8.85;81.66;98155.81;130264;1268;108892;-73
2022/01/04 12:39:58;;;;;;;17.20;11.30;;;;;;;8.87;81.75;98150.19;130235;1268;108168;-73
2022/01/04 12:43:04;;;;;;;18.30;12.00;;;;;;;8.89;81.67;98145.77;130289;1268;108769;-74
2022/01/04 12:46:09;;;;;;;19.80;13.30;;;;;;;8.88;81.78;98131.30;130217;1270;108628;-75
2022/01/04 12:49:17;;;;;;;20.10;12.30;;;;;;;8.85;81.80;98118.55;130178;1270;109106;-74
2022/01/04 12:52:22;;;;;;;18.50;11.40;;;;;;;8.85;81.70;98112.36;130262;1268;108687;-74
2022/01/04 12:55:28;;;;;;;17.80;11.70;;;;;;;8.87;81.69;98113.80;130204;1269;108698;-74
2022/01/04 12:58:40;;;;;;;19.20;12.90;;;;;;;8.87;81.75;98114.38;130246;1268;108263;-74
2022/01/04 13:01:49;;;;;;;19.20;13.20;;;;;;;8.89;81.85;98107.80;130319;1267;108828;-72
2022/01/04 13:04:57;;;;;;;29.60;18.40;;;;;;;8.89;81.82;98102.87;130333;1268;108718;-72
2022/01/04 13:08:04;;;;;;;40.10;26.80;;;;;;;8.87;81.78;98098.05;130383;1268;107624;-72
2022/01/04 13:11:11;;;;;;;30.10;21.50;;;;;;;8.84;81.74;98086.71;130328;1268;109706;-72
2022/01/04 13:14:21;;;;;;;22.10;15.40;;;;;;;8.81;81.91;98080.05;130320;1268;107914;-72
2022/01/04 13:17:29;;;;;;;26.00;19.80;;;;;;;8.78;82.00;98072.67;130384;1268;108312;-73
2022/01/04 13:20:35;;;;;;;25.50;18.00;;;;;;;8.79;81.96;98065.70;130320;1267;108683;-73
2022/01/04 13:23:42;;;;;;;23.00;17.00;;;;;;;8.80;81.92;98061.11;130331;1268;108875;-74
2022/01/04 13:26:47;;;;;;;26.90;21.70;;;;;;;8.80;81.95;98058.90;130377;1267;106937;-75
2022/01/04 13:29:56;;;;;;;26.00;19.90;;;;;;;8.81;82.06;98056.66;130333;1268;109387;-73
2022/01/04 13:33:04;;;;;;;21.50;13.90;;;;;;;8.80;81.89;98054.20;130339;1268;108715;-74
2022/01/04 13:36:10;;;;;;;21.20;14.10;;;;;;;8.76;81.99;98056.20;130179;1268;108738;-75
2022/01/04 13:39:18;;;;;;;22.50;14.90;;;;;;;8.75;82.05;98053.00;130347;1267;108842;-73
2022/01/04 13:42:38;;;;;;;19.80;13.90;;;;;;;8.76;82.14;98050.79;130341;1268;109682;-72
2022/01/04 13:45:46;;;;;;;26.70;17.70;;;;;;;8.78;82.03;98045.23;130332;1267;106978;-73
2022/01/04 13:48:54;;;;;;;24.90;20.80;;;;;;;8.75;82.02;98037.03;130359;1268;108928;-73
2022/01/04 13:52:15;;;;;;;21.80;16.50;;;;;;;8.72;82.10;98033.49;130529;1268;108496;-73
2022/01/04 13:55:21;;;;;;;29.60;18.00;;;;;;;8.70;82.14;98032.98;130346;1267;108783;-72
2022/01/04 13:58:38;;;;;;;28.90;15.90;;;;;;;8.67;82.15;98021.81;130469;1268;108487;-75
2022/01/04 14:01:46;;;;;;;37.30;19.90;;;;;;;8.64;82.10;98009.81;130412;1268;108951;-74
2022/01/04 14:05:11;;;;;;;20.90;14.60;;;;;;;8.67;82.24;97996.23;130245;1268;108715;-73
2022/01/04 14:08:17;;;;;;;21.50;15.40;;;;;;;8.68;82.19;97980.02;130295;1268;107716;-73
2022/01/04 14:11:25;;;;;;;28.80;19.20;;;;;;;8.68;82.22;97971.39;130228;1268;108825;-74
2022/01/04 14:14:33;;;;;;;34.30;23.20;;;;;;;8.64;82.21;97964.17;130182;1268;108966;-74
2022/01/04 14:17:40;;;;;;;30.00;18.90;;;;;;;8.61;82.18;97952.45;130007;1268;108818;-74
2022/01/04 14:20:57;;;;;;;34.40;20.20;;;;;;;8.58;82.27;97947.95;130200;1268;109722;-74
2022/01/04 14:24:04;;;;;;;29.70;18.80;;;;;;;8.55;82.11;97945.81;130206;1268;109144;-73